Latest Weather Observations for Davis*

IDT60801

Issued at 9:32 pm EDT Saturday 10 December 2016 (issued every 30 minutes, with the page automatically refreshed every 10 minutes)

About weather observations | Map of weather stations | Latest weather observations for ANT | Other Formats
Station Details ID: 300000 Name: DAVIS Lat: -68.57 Lon: 77.97 Height: 18.0 m
Data from the previous 72 hours. | See also: Recent months at Davis*
Date/Time
EDT
Temp
°C
App
Temp
°C
Dew
Point
°C
Rel
Hum
%
Delta-T
°C
Wind Press
QNH
hPa
Press
MSL
hPa
Rain since
9am
mm
Dir  Spd
km/h
Gust
km/h
Spd
kts
Gust
kts
10/09:30pm 2.2 -10.8 -6.4 53 - NE 54 74 29 40 981.8 - -
10/09:02pm 2.1 -10.2 -6.5 53 - NE 50 69 27 37 982.1 - -
10/09:00pm 2.5 -10.1 -5.8 54 - NE 52 69 28 37 982.3 - -
10/08:30pm 1.5 -12.0 -7.3 52 - NE 56 74 30 40 982.1 - -
10/08:02pm 1.8 -10.3 -5.3 59 - NE 50 69 27 37 982.6 - -
10/08:00pm 1.8 -10.7 -5.6 58 - NE 52 69 28 37 982.7 982.8 -
10/07:36pm 1.6 -9.9 -6.4 55 - NNE 46 65 25 35 982.7 - -
10/07:30pm 1.4 -9.5 -6.2 57 - NNE 43 54 23 29 982.9 - -
10/07:00pm 1.1 -9.8 -6.2 58 - NNE 43 57 23 31 983.0 - -
10/06:38pm 1.0 -10.0 -7.7 52 - NNE 43 61 23 33 983.3 - -
10/06:30pm 0.9 -10.3 -7.1 55 - NNE 44 61 24 33 983.5 - -
10/06:00pm 1.3 -9.7 -7.7 51 - NE 43 56 23 30 983.8 - -
10/05:32pm 0.3 -11.7 -8.1 53 - NE 48 67 26 36 983.9 - -
10/05:30pm 0.9 -11.1 -7.8 52 - NE 48 65 26 35 983.8 - -
10/05:24pm 0.6 -10.7 -8.1 52 - NE 44 65 24 35 984.0 - -
10/05:00pm 0.7 -11.6 -7.3 55 - NE 50 59 27 32 984.1 984.2 -
10/04:30pm 0.8 -11.2 -7.7 53 - NE 48 61 26 33 984.1 - -
10/04:05pm 0.5 -11.5 -7.5 55 - NE 48 67 26 36 984.5 - -
10/04:00pm 0.4 -12.3 -7.3 56 - NE 52 69 28 37 984.4 - -
10/03:38pm 0.2 -10.8 -7.5 56 - NE 43 61 23 33 984.5 - -
10/03:30pm 0.7 -10.9 -7.1 56 - NE 46 59 25 32 984.7 - -
10/03:00pm 1.0 -10.2 -7.2 54 - NE 44 59 24 32 985.0 - -
10/02:30pm 0.6 -10.1 -7.9 53 - NE 41 54 22 29 985.3 - -
10/02:00pm 0.1 -11.6 -8.6 52 - NE 46 59 25 32 985.6 985.8 -
10/01:30pm -0.5 -9.7 -8.2 56 - NNE 33 44 18 24 986.4 - -
10/01:00pm -1.6 -10.5 -7.3 65 - NNE 32 41 17 22 986.8 - -
10/12:30pm -1.6 -8.7 -8.5 59 - NNE 22 30 12 16 987.1 - -
10/12:00pm -2.5 -9.2 -8.0 66 - NNE 20 30 11 16 987.5 - -
10/11:30am -2.7 -9.2 -8.5 64 - N 19 22 10 12 987.6 - -
10/11:00am -2.1 -9.0 -10.4 53 - NE 20 26 11 14 987.7 987.9 -
10/10:30am -1.9 -9.1 -10.2 53 - NE 22 26 12 14 987.7 - -
10/10:00am -2.1 -8.8 -10.4 53 - NNE 19 26 10 14 987.8 - -
10/09:30am -2.7 -8.9 -8.5 64 - NNE 17 20 9 11 987.9 - -
10/09:00am -2.3 -8.1 -9.2 59 - NNE 15 20 8 11 988.0 - -
10/08:30am -2.2 -8.9 -10.2 54 - NE 19 22 10 12 988.0 - -
10/08:00am -2.4 -8.7 -10.2 55 - NE 17 20 9 11 988.1 988.3 -
10/07:30am -2.2 -9.1 -10.2 54 - NE 20 26 11 14 988.1 - -
10/07:00am -2.1 -8.0 -9.9 55 - NE 15 19 8 10 988.1 - -
10/06:30am -2.1 -7.2 -9.7 56 - NE 11 13 6 7 988.1 - -
10/06:00am -1.9 -7.8 -9.9 54 - NE 15 19 8 10 988.2 - -
10/05:30am -2.6 -8.4 -8.7 63 - NNE 15 19 8 10 988.2 - -
10/05:00am -1.9 -7.7 -8.2 62 - NNE 15 19 8 10 988.3 988.5 -
10/04:30am -0.6 -6.9 -10.0 49 - NE 17 20 9 11 988.3 - -
10/04:00am 0.2 -5.4 -11.5 41 - NE 13 19 7 10 988.5 - -
10/03:30am 0.4 -4.1 -11.0 42 - NE 7 13 4 7 988.5 - -
10/03:00am 0.0 -4.3 -8.7 52 - N 7 11 4 6 988.7 - -
10/02:30am -0.1 -3.0 -8.3 54 - CALM 0 0 0 0 988.9 - -
10/02:00am -0.5 -4.4 -4.4 75 - WNW 7 9 4 5 989.1 989.3 -
10/01:30am -0.4 -5.4 -4.3 75 - WSW 13 17 7 9 989.1 - -
10/01:00am 0.5 -5.3 -4.9 67 - WSW 17 20 9 11 989.3 - -
10/12:30am 0.3 -4.8 -5.3 66 - WSW 13 17 7 9 989.6 - -
10/12:00am 0.7 -4.5 -5.7 62 - SW 13 19 7 10 989.8 - -
 
Date/Time
EDT
Temp
°C
App
Temp
°C
Dew
Point
°C
Rel
Hum
%
Delta-T
°C
Wind Press
QNH
hPa
Press
MSL
hPa
Rain since
9am
mm
Dir  Spd
km/h
Gust
km/h
Spd
kts
Gust
kts
09/11:30pm 1.2 -4.2 -4.8 64 - WSW 15 20 8 11 989.9 - -
09/11:00pm 0.8 -4.7 -5.4 63 - W 15 17 8 9 990.1 990.3 -
09/10:30pm -0.5 -6.1 -5.9 67 - SW 15 17 8 9 990.1 - -
09/10:00pm -0.4 -5.2 -6.0 66 - WSW 11 15 6 8 990.3 - -
09/09:30pm 0.3 -4.9 -5.7 64 - W 13 15 7 8 990.6 - -
09/09:00pm 1.1 -4.1 -6.2 58 - WSW 13 17 7 9 990.6 - -
09/08:30pm 1.3 -4.6 -5.6 60 - NNW 17 22 9 12 990.7 - -
09/08:00pm 0.6 -5.9 -6.3 60 - N 20 26 11 14 990.4 990.6 -
09/07:30pm 0.6 -6.0 -7.1 56 - N 20 24 11 13 990.4 - -
09/07:00pm 0.8 -6.5 -6.5 58 - N 24 28 13 15 990.3 - -
09/06:30pm 0.3 -7.1 -7.0 58 - N 24 28 13 15 990.3 - -
09/06:00pm 0.3 -6.6 -6.3 61 - N 22 26 12 14 990.3 - -
09/05:30pm 0.0 -6.5 -8.4 53 - N 19 24 10 13 990.3 - -
09/05:00pm 0.2 -6.3 -7.8 55 - N 19 22 10 12 990.3 990.5 -
09/04:30pm 0.2 -6.5 -8.5 52 - N 20 24 11 13 990.3 - -
09/04:00pm 0.3 -6.5 -8.9 50 - N 20 22 11 12 990.3 - -
09/03:30pm 0.2 -6.0 -8.5 52 - N 17 20 9 11 990.3 - -
09/03:00pm -0.4 -7.0 -9.8 49 - N 19 22 10 12 990.3 - -
09/02:30pm -0.2 -6.4 -9.3 50 - N 17 22 9 12 990.2 - -
09/02:00pm -0.5 -6.7 -8.4 55 - N 17 20 9 11 990.2 990.4 -
09/01:30pm -0.6 -5.4 -10.2 48 - NNW 9 13 5 7 990.1 - -
09/01:00pm -0.5 -5.3 -9.9 49 - N 9 13 5 7 989.9 - -
09/12:30pm -1.2 -5.9 -9.8 52 - NNW 9 11 5 6 989.8 - -
09/12:00pm -1.4 -6.9 -9.5 54 - N 13 17 7 9 989.8 - -
09/11:30am -0.8 -6.8 -11.5 44 - NE 15 19 8 10 989.7 - -
09/11:00am -1.0 -7.0 -12.0 43 - ENE 15 19 8 10 989.6 989.8 -
09/10:30am -1.8 -7.5 -11.9 46 - E 13 17 7 9 989.5 - -
09/10:00am -2.1 -7.8 -12.1 46 - ENE 13 17 7 9 989.4 - -
09/09:30am -1.8 -6.2 -12.7 43 - SE 6 7 3 4 989.6 - -
09/09:00am -2.7 -9.5 -11.9 49 - ENE 19 22 10 12 989.4 - -
09/08:30am -2.9 -8.2 -12.3 48 - NE 11 15 6 8 989.2 - -
09/08:00am -3.1 -7.6 -11.8 51 - E 7 13 4 7 989.2 989.4 -
09/07:30am -3.7 -8.6 -11.6 54 - ENE 9 11 5 6 989.0 - -
09/07:00am -4.9 -11.3 -11.9 58 - NNE 17 20 9 11 988.8 - -
09/06:30am -3.5 -9.7 -14.2 43 - NE 15 17 8 9 988.7 - -
09/06:00am -4.1 -11.3 -15.1 42 - E 20 28 11 15 988.4 - -
09/05:30am -3.8 -12.8 -14.5 43 - E 30 39 16 21 988.6 - -
09/05:00am -3.2 -12.6 -14.3 42 - E 32 41 17 22 988.9 989.1 -
09/04:30am -2.1 -10.0 -14.2 39 - ESE 24 33 13 18 988.9 - -
09/04:00am -0.6 -8.9 -14.8 33 - E 26 35 14 19 988.8 - -
09/03:30am 0.1 -9.4 -16.6 27 - E 32 39 17 21 988.8 - -
09/03:00am 0.2 -7.3 -8.2 53 - S 24 28 13 15 988.9 - -
09/02:30am 0.4 -5.7 -8.3 52 - S 17 24 9 13 988.9 - -
09/02:00am 0.3 -6.3 -6.8 59 - SSW 20 26 11 14 988.9 989.1 -
09/01:30am -0.4 -6.8 -4.8 72 - SSW 20 26 11 14 989.0 - -
09/01:00am -0.4 -5.8 -4.8 72 - SW 15 20 8 11 989.3 - -
09/12:30am -0.2 -6.1 -5.4 68 - WSW 17 22 9 12 989.5 - -
09/12:00am 0.0 -5.9 -5.6 66 - SW 17 22 9 12 990.0 - -
 
Date/Time
EDT
Temp
°C
App
Temp
°C
Dew
Point
°C
Rel
Hum
%
Delta-T
°C
Wind Press
QNH
hPa
Press
MSL
hPa
Rain since
9am
mm
Dir  Spd
km/h
Gust
km/h
Spd
kts
Gust
kts
08/11:30pm 0.2 -5.8 -6.2 62 - WSW 17 22 9 12 990.2 - -
08/11:00pm -0.3 -6.0 -7.1 60 - SW 15 20 8 11 990.3 990.5 -
08/10:30pm -0.7 -7.3 -6.8 63 - SW 20 26 11 14 990.3 - -
08/10:00pm 0.4 -5.6 -6.4 60 - SW 17 20 9 11 990.3 - -
08/09:30pm 0.3 -5.4 -7.2 57 - SW 15 20 8 11 990.4 - -
08/09:00pm 0.0 -5.7 -7.3 58 - WSW 15 19 8 10 990.6 - -
08/08:30pm 0.6 -4.8 -8.3 51 - NW 13 17 7 9 990.6 - -
08/08:00pm 0.1 -6.6 -7.6 56 - N 20 24 11 13 990.4 990.6 -
08/07:30pm 0.4 -6.7 -7.8 54 - N 22 28 12 15 990.5 - -
08/07:00pm 0.3 -6.8 -8.4 52 - N 22 28 12 15 990.5 - -
08/06:30pm 0.2 -6.9 -8.5 52 - N 22 26 12 14 990.5 - -
08/06:00pm 0.6 -6.6 -9.4 47 - N 22 28 12 15 990.4 - -
08/05:30pm 1.0 -6.2 -9.0 47 - NNE 22 28 12 15 990.4 - -
08/05:00pm 1.3 -6.0 -11.1 39 - NNE 22 32 12 17 990.3 990.5 -
08/04:30pm 0.4 -7.7 -12.2 38 - NNE 26 35 14 19 990.4 - -
08/04:00pm 0.5 -8.0 -11.8 39 - NNE 28 35 15 19 990.4 - -
08/03:30pm 0.1 -7.9 -10.7 44 - NNE 26 32 14 17 990.5 - -
08/03:00pm -0.3 -8.5 -13.9 35 - NNE 26 33 14 18 990.4 - -
08/02:30pm -0.3 -8.0 -11.6 42 - NNE 24 35 13 19 990.5 - -
08/02:00pm -0.3 -8.0 -10.8 45 - NNE 24 33 13 18 990.5 990.7 -
08/01:30pm -0.5 -7.9 -12.7 39 - NE 22 32 12 17 990.6 - -
08/01:00pm -0.5 -8.3 -13.0 38 - NE 24 39 13 21 990.5 - -
08/12:30pm -0.7 -8.9 -12.3 41 - NE 26 39 14 21 990.6 - -
08/12:00pm -1.1 -9.7 -12.6 41 - NE 28 37 15 20 990.6 - -
08/11:30am -1.4 -10.0 -12.9 41 - NE 28 41 15 22 990.5 - -
08/11:00am -2.0 -9.5 -13.5 41 - NE 22 26 12 14 990.6 990.8 -
08/10:30am -2.0 -9.1 -12.9 43 - NE 20 28 11 15 990.7 - -
08/10:00am -2.5 -9.6 -13.0 44 - ENE 20 24 11 13 990.5 - -
08/09:30am -2.6 -9.4 -12.3 47 - ENE 19 24 10 13 990.4 - -
08/09:00am -2.8 -8.9 -12.5 47 - ENE 15 20 8 11 990.3 - -
08/08:30am -2.8 -9.3 -13.0 45 - E 17 24 9 13 990.3 - -
08/08:00am -2.7 -9.5 -11.9 49 - ENE 19 24 10 13 990.1 990.3 -
08/07:30am -2.7 -9.5 -11.4 51 - ENE 19 22 10 12 990.0 - -
08/07:00am -2.5 -8.1 -10.7 53 - ENE 13 17 7 9 989.9 - -
08/06:30am -2.4 -8.7 -10.6 53 - NE 17 20 9 11 989.8 - -
08/06:00am -2.1 -8.0 -9.9 55 - NE 15 20 8 11 989.6 - -
08/05:30am -1.8 -8.5 -9.9 54 - NE 19 24 10 13 989.4 - -
08/05:00am -1.6 -8.4 -9.2 56 - ENE 20 26 11 14 989.2 989.4 -
08/04:30am -1.1 -8.7 -9.9 51 - ENE 24 28 13 15 988.9 - -
08/04:00am -0.1 -6.9 -9.5 49 - ENE 20 26 11 14 988.9 - -
08/03:30am 0.2 -6.4 -9.5 48 - ENE 19 22 10 12 988.7 - -
08/03:00am -1.2 -6.3 -5.4 73 - SW 13 15 7 8 988.7 - -
08/02:30am -0.4 -6.0 -6.4 64 - SSW 15 17 8 9 988.6 - -
08/02:00am -1.0 -6.1 -5.4 72 - SW 13 17 7 9 988.7 988.9 -

Other Formats:

Comma delimited format used in spreadsheet applications
http://www.bom.gov.au/fwo/IDT60803/IDT60803.89571.axf

JavaScript Object Notation format (JSON) in row-major order
http://www.bom.gov.au/fwo/IDT60803/IDT60803.89571.json